createdAt,value
2018-10-02T00:00:27.397Z,1023.23
2018-10-02T00:01:27.356Z,1023.25
2018-10-02T00:02:27.328Z,1023.26
2018-10-02T00:03:27.194Z,1023.23
2018-10-02T00:04:27.438Z,1023.27
2018-10-02T00:05:27.806Z,1023.3
2018-10-02T00:06:27.432Z,1023.32
2018-10-02T00:07:27.251Z,1023.32
2018-10-02T00:08:27.165Z,1023.27
2018-10-02T00:09:27.435Z,1023.31
2018-10-02T00:10:27.207Z,1023.33
2018-10-02T00:11:27.295Z,1023.37
2018-10-02T00:12:27.382Z,1023.33
2018-10-02T00:13:27.375Z,1023.38
2018-10-02T00:14:27.491Z,1023.35
2018-10-02T00:15:27.259Z,1023.39
2018-10-02T00:16:27.279Z,1023.38
2018-10-02T00:17:27.818Z,1023.37
2018-10-02T00:18:27.329Z,1023.4
2018-10-02T00:19:27.219Z,1023.37
2018-10-02T00:20:27.308Z,1023.39
2018-10-02T00:21:27.683Z,1023.37
2018-10-02T00:22:27.386Z,1023.41
2018-10-02T00:23:27.453Z,1023.41
2018-10-02T00:24:27.407Z,1023.42
2018-10-02T00:25:27.267Z,1023.43
2018-10-02T00:26:27.314Z,1023.36
2018-10-02T00:27:27.284Z,1023.37
2018-10-02T00:28:27.390Z,1023.35
2018-10-02T00:29:27.761Z,1023.36
2018-10-02T00:30:27.403Z,1023.34
2018-10-02T00:31:27.933Z,1023.35
2018-10-02T00:32:28.686Z,1023.34
2018-10-02T00:33:27.626Z,1023.33
2018-10-02T00:34:27.344Z,1023.33
2018-10-02T00:35:27.360Z,1023.34
2018-10-02T00:36:27.686Z,1023.33
2018-10-02T00:37:27.404Z,1023.33
2018-10-02T00:38:27.610Z,1023.36
2018-10-02T00:39:27.675Z,1023.31
2018-10-02T00:40:27.251Z,1023.33
2018-10-02T00:41:27.343Z,1023.26
2018-10-02T00:42:27.306Z,1023.31
2018-10-02T00:43:27.160Z,1023.3
2018-10-02T00:44:27.278Z,1023.3
2018-10-02T00:45:27.719Z,1023.37
2018-10-02T00:46:27.607Z,1023.39
2018-10-02T00:47:27.642Z,1023.37
2018-10-02T00:48:27.523Z,1023.35
2018-10-02T00:49:27.417Z,1023.35
2018-10-02T00:50:27.396Z,1023.33
2018-10-02T00:51:27.353Z,1023.44
2018-10-02T00:52:27.404Z,1023.36
2018-10-02T00:53:27.171Z,1023.36
2018-10-02T00:54:27.342Z,1023.4
2018-10-02T00:55:27.210Z,1023.39
2018-10-02T00:56:27.353Z,1023.41
2018-10-02T00:57:27.688Z,1023.35
2018-10-02T00:58:27.267Z,1023.39
2018-10-02T00:59:27.255Z,1023.37
2018-10-02T01:00:27.688Z,1023.4
2018-10-02T01:01:27.291Z,1023.42
2018-10-02T01:02:27.339Z,1023.42
2018-10-02T01:03:27.270Z,1023.39
2018-10-02T01:04:27.370Z,1023.41
2018-10-02T01:05:27.421Z,1023.46
2018-10-02T01:06:27.719Z,1023.41
2018-10-02T01:07:27.862Z,1023.4
2018-10-02T01:08:27.216Z,1023.4
2018-10-02T01:09:27.348Z,1023.41
2018-10-02T01:10:27.286Z,1023.37
2018-10-02T01:11:27.358Z,1023.36
2018-10-02T01:12:27.604Z,1023.41
2018-10-02T01:13:27.408Z,1023.42
2018-10-02T01:14:27.737Z,1023.4
2018-10-02T01:15:27.196Z,1023.39
2018-10-02T01:16:27.354Z,1023.31
2018-10-02T01:17:27.273Z,1023.31
2018-10-02T01:18:27.469Z,1023.31
2018-10-02T01:19:27.648Z,1023.35
2018-10-02T01:20:27.340Z,1023.34
2018-10-02T01:21:27.433Z,1023.3
2018-10-02T01:22:27.269Z,1023.3
2018-10-02T01:23:27.187Z,1023.39
2018-10-02T01:24:27.257Z,1023.36
2018-10-02T01:25:27.804Z,1023.42
2018-10-02T01:26:27.453Z,1023.38
2018-10-02T01:27:27.308Z,1023.36
2018-10-02T01:28:27.303Z,1023.37
2018-10-02T01:29:27.208Z,1023.37
2018-10-02T01:30:27.189Z,1023.36
2018-10-02T01:31:27.307Z,1023.39
2018-10-02T01:32:27.662Z,1023.38
2018-10-02T01:33:27.300Z,1023.42
2018-10-02T01:34:27.455Z,1023.43
2018-10-02T01:35:27.346Z,1023.44
2018-10-02T01:36:27.403Z,1023.44
2018-10-02T01:37:27.269Z,1023.45
2018-10-02T01:38:27.376Z,1023.41
2018-10-02T01:39:27.346Z,1023.41
2018-10-02T01:40:27.247Z,1023.36
2018-10-02T01:41:27.199Z,1023.38
2018-10-02T01:42:27.445Z,1023.44
2018-10-02T01:43:27.395Z,1023.41
2018-10-02T01:44:27.707Z,1023.41
2018-10-02T01:45:27.373Z,1023.42
2018-10-02T01:46:27.415Z,1023.43
2018-10-02T01:47:27.254Z,1023.42
2018-10-02T01:48:27.249Z,1023.37
2018-10-02T01:49:27.405Z,1023.37
2018-10-02T01:50:27.331Z,1023.35
2018-10-02T01:51:27.196Z,1023.45
2018-10-02T01:52:27.222Z,1023.42
2018-10-02T01:53:27.279Z,1023.39
2018-10-02T01:54:27.800Z,1023.39
2018-10-02T01:55:27.330Z,1023.35
2018-10-02T01:56:27.259Z,1023.41
2018-10-02T01:57:27.155Z,1023.42
2018-10-02T01:58:27.265Z,1023.4
2018-10-02T01:59:27.203Z,1023.38
2018-10-02T02:00:27.363Z,1023.39
2018-10-02T02:01:27.343Z,1023.42
2018-10-02T02:02:27.296Z,1023.41
2018-10-02T02:03:27.302Z,1023.46
2018-10-02T02:04:27.351Z,1023.46
2018-10-02T02:05:27.376Z,1023.44
2018-10-02T02:06:27.694Z,1023.45
2018-10-02T02:07:27.217Z,1023.45
2018-10-02T02:08:27.288Z,1023.49
2018-10-02T02:09:27.277Z,1023.5
2018-10-02T02:10:27.326Z,1023.51
2018-10-02T02:11:27.514Z,1023.47
2018-10-02T02:12:27.351Z,1023.44
2018-10-02T02:13:27.350Z,1023.45
2018-10-02T02:14:27.758Z,1023.48
2018-10-02T02:15:27.631Z,1023.44
2018-10-02T02:16:27.397Z,1023.49
2018-10-02T02:17:27.249Z,1023.5
2018-10-02T02:18:27.373Z,1023.52
2018-10-02T02:19:27.671Z,1023.49
2018-10-02T02:20:27.344Z,1023.51
2018-10-02T02:21:27.281Z,1023.52
2018-10-02T02:22:27.387Z,1023.49
2018-10-02T02:23:27.451Z,1023.52
2018-10-02T02:24:27.231Z,1023.49
2018-10-02T02:25:27.457Z,1023.44
2018-10-02T02:26:27.170Z,1023.48
2018-10-02T02:27:27.795Z,1023.47
2018-10-02T02:28:27.291Z,1023.42
2018-10-02T02:29:27.112Z,1023.44
2018-10-02T02:30:27.756Z,1023.39
2018-10-02T02:31:27.287Z,1023.41
2018-10-02T02:32:27.321Z,1023.45
2018-10-02T02:33:27.289Z,1023.45
2018-10-02T02:34:27.224Z,1023.44
2018-10-02T02:35:27.687Z,1023.52
2018-10-02T02:36:27.330Z,1023.56
2018-10-02T02:37:27.301Z,1023.54
2018-10-02T02:38:27.484Z,1023.61
2018-10-02T02:39:27.518Z,1023.62
2018-10-02T02:40:27.283Z,1023.61
2018-10-02T02:41:27.262Z,1023.65
2018-10-02T02:42:27.128Z,1023.67
2018-10-02T02:43:27.176Z,1023.65
2018-10-02T02:44:27.051Z,1023.65
2018-10-02T02:45:27.532Z,1023.64
2018-10-02T02:46:27.075Z,1023.64
2018-10-02T02:47:27.304Z,1023.69
2018-10-02T02:48:27.172Z,1023.66
2018-10-02T02:49:27.332Z,1023.73
2018-10-02T02:50:27.497Z,1023.7
2018-10-02T02:51:27.232Z,1023.76
2018-10-02T02:52:27.425Z,1023.73
2018-10-02T02:53:27.254Z,1023.72
2018-10-02T02:54:27.419Z,1023.7
2018-10-02T02:55:27.290Z,1023.76
2018-10-02T02:56:27.096Z,1023.76
2018-10-02T02:57:27.269Z,1023.74
2018-10-02T02:58:27.291Z,1023.74
2018-10-02T02:59:27.560Z,1023.81
2018-10-02T03:00:27.412Z,1023.79
2018-10-02T03:01:27.211Z,1023.78
2018-10-02T03:02:27.207Z,1023.8
2018-10-02T03:03:27.450Z,1023.83
2018-10-02T03:04:27.213Z,1023.77
2018-10-02T03:05:27.330Z,1023.83
2018-10-02T03:06:27.326Z,1023.87
2018-10-02T03:07:27.513Z,1023.83
2018-10-02T03:08:27.137Z,1023.82
2018-10-02T03:09:27.405Z,1023.83
2018-10-02T03:10:27.256Z,1023.8
2018-10-02T03:11:27.329Z,1023.8
2018-10-02T03:12:27.249Z,1023.75
2018-10-02T03:13:27.219Z,1023.75
2018-10-02T03:14:27.392Z,1023.7
2018-10-02T03:15:27.459Z,1023.72
2018-10-02T03:16:27.275Z,1023.66
2018-10-02T03:17:27.443Z,1023.68
2018-10-02T03:18:27.268Z,1023.66
2018-10-02T03:19:27.820Z,1023.71
2018-10-02T03:20:27.387Z,1023.7
2018-10-02T03:21:27.280Z,1023.7
2018-10-02T03:22:27.309Z,1023.77
2018-10-02T03:23:27.229Z,1023.82
2018-10-02T03:24:27.430Z,1023.8
2018-10-02T03:25:27.420Z,1023.78
2018-10-02T03:26:27.346Z,1023.73
2018-10-02T03:27:27.286Z,1023.73
2018-10-02T03:28:27.440Z,1023.74
2018-10-02T03:29:27.555Z,1023.73
2018-10-02T03:30:27.299Z,1023.72
2018-10-02T03:31:27.807Z,1023.67
2018-10-02T03:32:27.244Z,1023.76
2018-10-02T03:33:27.320Z,1023.65
2018-10-02T03:34:27.324Z,1023.73
2018-10-02T03:35:27.241Z,1023.72
2018-10-02T03:36:27.270Z,1023.68
2018-10-02T03:37:27.594Z,1023.64
2018-10-02T03:38:27.269Z,1023.65
2018-10-02T03:39:27.360Z,1023.68
2018-10-02T03:40:27.385Z,1023.67
2018-10-02T03:41:27.506Z,1023.66
2018-10-02T03:42:27.240Z,1023.78
2018-10-02T03:43:27.412Z,1023.77
2018-10-02T03:44:27.235Z,1023.75
2018-10-02T03:45:27.351Z,1023.81
2018-10-02T03:46:27.594Z,1023.82
2018-10-02T03:47:27.229Z,1023.83
2018-10-02T03:48:27.249Z,1023.86
2018-10-02T03:49:27.219Z,1023.82
2018-10-02T03:50:27.124Z,1023.85
2018-10-02T03:51:27.266Z,1023.8
2018-10-02T03:52:27.323Z,1023.83
2018-10-02T03:53:27.302Z,1023.8
2018-10-02T03:54:27.239Z,1023.79
2018-10-02T03:55:27.172Z,1023.75
2018-10-02T03:56:27.447Z,1023.75
2018-10-02T03:57:27.536Z,1023.79
2018-10-02T03:58:27.675Z,1023.79
2018-10-02T03:59:27.243Z,1023.84
2018-10-02T04:00:27.128Z,1023.81
2018-10-02T04:01:27.241Z,1023.78
2018-10-02T04:02:27.244Z,1023.75
2018-10-02T04:03:27.828Z,1023.75
2018-10-02T04:04:27.427Z,1023.73
2018-10-02T04:05:27.145Z,1023.74
2018-10-02T04:06:27.274Z,1023.78
2018-10-02T04:07:27.189Z,1023.78
2018-10-02T04:08:27.731Z,1023.75
2018-10-02T04:09:27.231Z,1023.72
2018-10-02T04:10:27.370Z,1023.68
2018-10-02T04:11:27.399Z,1023.72
2018-10-02T04:12:27.329Z,1023.7
2018-10-02T04:13:27.394Z,1023.69
2018-10-02T04:14:27.397Z,1023.69
2018-10-02T04:15:27.422Z,1023.7
2018-10-02T04:16:27.315Z,1023.68
2018-10-02T04:17:27.147Z,1023.62
2018-10-02T04:18:27.180Z,1023.58
2018-10-02T04:19:27.387Z,1023.55
2018-10-02T04:20:27.364Z,1023.57
2018-10-02T04:21:27.182Z,1023.55
2018-10-02T04:22:27.101Z,1023.59
2018-10-02T04:23:27.286Z,1023.59
2018-10-02T04:24:27.384Z,1023.6
2018-10-02T04:25:27.390Z,1023.62
2018-10-02T04:26:27.114Z,1023.65
2018-10-02T04:27:27.147Z,1023.72
2018-10-02T04:28:27.847Z,1023.73
2018-10-02T04:29:27.201Z,1023.71
2018-10-02T04:30:27.309Z,1023.73
2018-10-02T04:31:27.189Z,1023.75
2018-10-02T04:32:27.322Z,1023.74
2018-10-02T04:33:27.171Z,1023.77
2018-10-02T04:34:27.130Z,1023.78
2018-10-02T04:35:27.306Z,1023.73
2018-10-02T04:36:27.414Z,1023.75
2018-10-02T04:37:27.261Z,1023.72
2018-10-02T04:38:27.219Z,1023.65
2018-10-02T04:39:27.748Z,1023.63
2018-10-02T04:40:27.102Z,1023.62
2018-10-02T04:41:27.322Z,1023.64
2018-10-02T04:42:27.260Z,1023.64
2018-10-02T04:43:27.349Z,1023.66
2018-10-02T04:44:27.245Z,1023.62
2018-10-02T04:45:27.132Z,1023.68
2018-10-02T04:46:27.569Z,1023.58
2018-10-02T04:47:27.467Z,1023.57
2018-10-02T04:48:27.665Z,1023.57
2018-10-02T04:49:27.178Z,1023.53
2018-10-02T04:50:27.426Z,1023.52
2018-10-02T04:51:27.611Z,1023.52
2018-10-02T04:52:27.157Z,1023.5
2018-10-02T04:53:27.634Z,1023.49
2018-10-02T04:54:27.150Z,1023.49
2018-10-02T04:55:27.267Z,1023.43
2018-10-02T04:56:27.310Z,1023.39
2018-10-02T04:57:27.190Z,1023.4
2018-10-02T04:58:27.113Z,1023.34
2018-10-02T04:59:27.621Z,1023.37
2018-10-02T05:00:27.113Z,1023.38
2018-10-02T05:01:27.242Z,1023.34
2018-10-02T05:02:27.623Z,1023.37
2018-10-02T05:03:27.343Z,1023.41
2018-10-02T05:04:27.251Z,1023.44
2018-10-02T05:05:27.529Z,1023.44
2018-10-02T05:06:27.539Z,1023.45
2018-10-02T05:07:27.451Z,1023.47
2018-10-02T05:08:27.877Z,1023.44
2018-10-02T05:09:27.082Z,1023.44
2018-10-02T05:10:27.469Z,1023.46
2018-10-02T05:11:27.269Z,1023.45
2018-10-02T05:12:27.112Z,1023.44
2018-10-02T05:13:27.321Z,1023.41
2018-10-02T05:14:27.128Z,1023.42
2018-10-02T05:15:27.351Z,1023.41
2018-10-02T05:16:27.259Z,1023.39
2018-10-02T05:17:27.671Z,1023.38
2018-10-02T05:18:27.266Z,1023.36
2018-10-02T05:19:27.740Z,1023.38
2018-10-02T05:20:27.297Z,1023.35
2018-10-02T05:21:27.109Z,1023.37
2018-10-02T05:22:27.636Z,1023.4
2018-10-02T05:23:27.074Z,1023.44
2018-10-02T05:24:27.156Z,1023.47
2018-10-02T05:25:27.158Z,1023.58
2018-10-02T05:26:27.152Z,1023.6
2018-10-02T05:27:27.968Z,1023.6
2018-10-02T05:28:27.190Z,1023.59
2018-10-02T05:29:27.204Z,1023.6
2018-10-02T05:30:27.159Z,1023.64
2018-10-02T05:31:27.319Z,1023.64
2018-10-02T05:32:27.399Z,1023.73
2018-10-02T05:33:27.338Z,1023.75
2018-10-02T05:34:27.440Z,1023.76
2018-10-02T05:35:27.647Z,1023.75
2018-10-02T05:36:27.208Z,1023.71
2018-10-02T05:37:27.229Z,1023.75
2018-10-02T05:38:27.039Z,1023.63
2018-10-02T05:39:27.187Z,1023.71
2018-10-02T05:40:27.215Z,1023.76
2018-10-02T05:41:27.081Z,1023.79
2018-10-02T05:42:27.688Z,1023.83
2018-10-02T05:43:27.084Z,1023.81
2018-10-02T05:44:27.344Z,1023.78
2018-10-02T05:45:27.259Z,1023.81
2018-10-02T05:46:27.169Z,1023.74
2018-10-02T05:47:27.327Z,1023.77
2018-10-02T05:48:27.198Z,1023.73
2018-10-02T05:49:27.353Z,1023.69
2018-10-02T05:50:27.156Z,1023.71
2018-10-02T05:51:27.024Z,1023.74
2018-10-02T05:52:27.082Z,1023.72
2018-10-02T05:53:27.235Z,1023.67
2018-10-02T05:54:27.312Z,1023.7
2018-10-02T05:55:27.140Z,1023.68
2018-10-02T05:56:27.324Z,1023.69
2018-10-02T05:57:27.205Z,1023.7
2018-10-02T05:58:27.764Z,1023.68
2018-10-02T05:59:27.238Z,1023.71
2018-10-02T06:00:27.035Z,1023.69
2018-10-02T06:01:27.411Z,1023.75
2018-10-02T06:02:27.525Z,1023.76
2018-10-02T06:03:27.722Z,1023.75
2018-10-02T06:04:27.238Z,1023.81
2018-10-02T06:05:27.245Z,1023.85
2018-10-02T06:06:27.453Z,1023.81
2018-10-02T06:07:27.155Z,1023.83
2018-10-02T06:08:27.465Z,1023.83
2018-10-02T06:09:27.267Z,1023.84
2018-10-02T06:10:27.415Z,1023.88
2018-10-02T06:11:27.133Z,1023.85
2018-10-02T06:12:26.961Z,1023.86
2018-10-02T06:13:27.346Z,1023.79
2018-10-02T06:14:27.034Z,1023.77
2018-10-02T06:15:27.257Z,1023.72
2018-10-02T06:16:27.299Z,1023.72
2018-10-02T06:17:27.343Z,1023.75
2018-10-02T06:18:27.377Z,1023.73
2018-10-02T06:19:27.219Z,1023.78
2018-10-02T06:20:27.175Z,1023.78
2018-10-02T06:21:27.243Z,1023.84
2018-10-02T06:22:27.289Z,1023.89
2018-10-02T06:23:27.521Z,1023.9
2018-10-02T06:24:27.283Z,1023.93
2018-10-02T06:25:27.142Z,1023.96
2018-10-02T06:26:27.988Z,1023.99
2018-10-02T06:27:27.254Z,1024.06
2018-10-02T06:28:27.423Z,1024.06
2018-10-02T06:29:27.283Z,1024.05
2018-10-02T06:30:27.662Z,1024.06
2018-10-02T06:31:27.274Z,1024.08
2018-10-02T06:32:27.208Z,1024.05
2018-10-02T06:33:27.235Z,1024.09
2018-10-02T06:34:27.341Z,1023.99
2018-10-02T06:35:27.220Z,1024
2018-10-02T06:36:27.264Z,1024
2018-10-02T06:37:27.196Z,1023.93
2018-10-02T06:38:28.151Z,1024
2018-10-02T06:39:27.195Z,1023.96
2018-10-02T06:40:27.617Z,1024.02
2018-10-02T06:41:27.373Z,1024.02
2018-10-02T06:42:27.149Z,1024.05
2018-10-02T06:43:27.318Z,1024.01
2018-10-02T06:44:27.578Z,1024.02
2018-10-02T06:45:27.518Z,1024
2018-10-02T06:46:27.283Z,1024.01
2018-10-02T06:47:27.183Z,1023.96
2018-10-02T06:48:27.366Z,1023.93
2018-10-02T06:49:27.216Z,1023.93
2018-10-02T06:50:27.040Z,1023.98
2018-10-02T06:51:27.726Z,1023.99
2018-10-02T06:52:28.531Z,1023.99
2018-10-02T06:53:27.259Z,1023.96
2018-10-02T06:54:27.258Z,1023.99
2018-10-02T06:55:27.395Z,1024.01
2018-10-02T06:56:27.303Z,1023.96
2018-10-02T06:57:27.698Z,1024.05
2018-10-02T06:58:27.200Z,1023.99
2018-10-02T06:59:27.108Z,1024.01
2018-10-02T07:00:27.335Z,1023.95
2018-10-02T07:01:27.128Z,1024
2018-10-02T07:02:27.294Z,1024
2018-10-02T07:03:27.117Z,1023.96
2018-10-02T07:04:27.260Z,1023.98
2018-10-02T07:05:27.456Z,1023.94
2018-10-02T07:06:27.313Z,1023.96
2018-10-02T07:07:27.338Z,1023.98
2018-10-02T07:08:27.370Z,1023.92
2018-10-02T07:09:27.198Z,1023.87
2018-10-02T07:10:27.502Z,1023.85
2018-10-02T07:11:27.097Z,1023.83
2018-10-02T07:12:27.326Z,1023.78
2018-10-02T07:13:26.975Z,1023.79
2018-10-02T07:14:27.336Z,1023.91
2018-10-02T07:15:27.331Z,1023.94
2018-10-02T07:16:27.103Z,1023.97
2018-10-02T07:17:27.461Z,1023.95
2018-10-02T07:18:27.008Z,1023.94
2018-10-02T07:19:27.169Z,1023.93
2018-10-02T07:20:27.455Z,1023.89
2018-10-02T07:21:27.188Z,1023.87
2018-10-02T07:22:27.135Z,1023.86
2018-10-02T07:23:27.113Z,1023.9
2018-10-02T07:24:27.084Z,1023.86
2018-10-02T07:25:27.060Z,1023.89
2018-10-02T07:26:27.775Z,1023.85
2018-10-02T07:27:28.288Z,1023.89
2018-10-02T07:28:27.845Z,1023.85
2018-10-02T07:29:27.338Z,1023.88
2018-10-02T07:30:27.372Z,1023.92
2018-10-02T07:31:27.416Z,1023.93
2018-10-02T07:32:27.460Z,1023.98
2018-10-02T07:33:27.236Z,1024.03
2018-10-02T07:34:27.139Z,1024.06
2018-10-02T07:35:27.451Z,1024.05
2018-10-02T07:36:27.508Z,1024.04
2018-10-02T07:37:27.697Z,1024.09
2018-10-02T07:38:27.649Z,1024.06
2018-10-02T07:39:27.225Z,1024.07
2018-10-02T07:40:27.502Z,1024.06
2018-10-02T07:41:27.608Z,1024.05
2018-10-02T07:42:27.408Z,1024.08
2018-10-02T07:43:27.207Z,1024.09
2018-10-02T07:44:27.359Z,1024.16
2018-10-02T07:45:27.470Z,1024.16
2018-10-02T07:46:27.336Z,1024.11
2018-10-02T07:47:27.441Z,1024.05
2018-10-02T07:48:27.519Z,1024.06
2018-10-02T07:49:27.191Z,1024.07
2018-10-02T07:50:27.362Z,1024.02
2018-10-02T07:51:27.371Z,1024.04
2018-10-02T07:52:27.085Z,1024.06
2018-10-02T07:53:27.396Z,1024.03
2018-10-02T07:54:27.141Z,1024.01
2018-10-02T07:55:27.703Z,1024.02
2018-10-02T07:56:27.539Z,1024.04
2018-10-02T07:57:27.232Z,1024.06
2018-10-02T07:58:27.398Z,1024.03
2018-10-02T07:59:27.310Z,1023.99
2018-10-02T08:00:27.178Z,1024.04
2018-10-02T08:01:27.520Z,1024.02
2018-10-02T08:02:27.499Z,1024
2018-10-02T08:03:27.374Z,1024
2018-10-02T08:04:27.208Z,1023.97
2018-10-02T08:05:27.501Z,1024.02
2018-10-02T08:06:27.005Z,1023.98
2018-10-02T08:07:27.070Z,1023.98
2018-10-02T08:08:27.582Z,1024.05
2018-10-02T08:09:27.095Z,1024.05
2018-10-02T08:10:27.320Z,1024.03
2018-10-02T08:11:27.323Z,1024.03
2018-10-02T08:12:28.192Z,1024.01
2018-10-02T08:13:27.647Z,1024.01
2018-10-02T08:14:27.275Z,1023.97
2018-10-02T08:15:27.026Z,1024.02
2018-10-02T08:16:27.133Z,1023.93
2018-10-02T08:17:27.648Z,1023.94
2018-10-02T08:18:27.150Z,1023.92
2018-10-02T08:19:27.383Z,1023.96
2018-10-02T08:20:27.500Z,1023.92
2018-10-02T08:21:27.161Z,1023.93
2018-10-02T08:22:27.169Z,1023.94
2018-10-02T08:23:27.611Z,1023.91
2018-10-02T08:24:27.155Z,1023.92
2018-10-02T08:25:27.133Z,1023.88
2018-10-02T08:26:27.119Z,1023.86
2018-10-02T08:27:27.729Z,1023.87
2018-10-02T08:28:27.189Z,1023.89
2018-10-02T08:29:27.412Z,1023.93
2018-10-02T08:30:27.751Z,1023.93
2018-10-02T08:31:27.234Z,1023.86
2018-10-02T08:32:27.311Z,1023.91
2018-10-02T08:33:27.080Z,1023.91
2018-10-02T08:34:27.161Z,1023.91
2018-10-02T08:35:27.522Z,1023.96
2018-10-02T08:36:27.331Z,1023.97
2018-10-02T08:37:27.152Z,1023.96
2018-10-02T08:38:27.307Z,1023.94
2018-10-02T08:39:26.970Z,1023.99
2018-10-02T08:40:27.161Z,1023.95
2018-10-02T08:41:27.180Z,1023.99
2018-10-02T08:42:27.177Z,1023.99
2018-10-02T08:43:27.481Z,1024.07
2018-10-02T08:44:27.343Z,1024.06
2018-10-02T08:45:27.081Z,1024.07
2018-10-02T08:46:27.128Z,1024.11
2018-10-02T08:47:27.159Z,1024.1
2018-10-02T08:48:27.027Z,1024.07
2018-10-02T08:49:27.379Z,1024.08
2018-10-02T08:50:27.410Z,1024.06
2018-10-02T08:51:27.006Z,1024.03
2018-10-02T08:52:27.140Z,1024.07
2018-10-02T08:53:27.245Z,1024.13
2018-10-02T08:54:26.986Z,1024.07
2018-10-02T08:55:27.491Z,1024.07
2018-10-02T08:56:27.118Z,1024.02
2018-10-02T08:57:27.144Z,1024.01
2018-10-02T08:58:27.116Z,1023.98
2018-10-02T08:59:27.196Z,1023.98
2018-10-02T09:00:27.435Z,1023.95
2018-10-02T09:01:27.172Z,1023.99
2018-10-02T09:02:27.072Z,1023.98
2018-10-02T09:03:27.241Z,1023.97
2018-10-02T09:04:27.119Z,1023.95
2018-10-02T09:05:27.559Z,1023.94
2018-10-02T09:06:27.122Z,1023.95
2018-10-02T09:07:27.076Z,1023.87
2018-10-02T09:08:27.176Z,1023.88
2018-10-02T09:09:27.075Z,1023.9
2018-10-02T09:10:27.691Z,1023.87
2018-10-02T09:11:26.915Z,1023.89
2018-10-02T09:12:27.254Z,1023.88
2018-10-02T09:13:27.009Z,1023.86
2018-10-02T09:14:27.207Z,1023.89
2018-10-02T09:15:27.411Z,1023.88
2018-10-02T09:16:27.765Z,1023.88
2018-10-02T09:17:27.125Z,1023.88
2018-10-02T09:18:27.300Z,1023.85
2018-10-02T09:19:27.246Z,1023.82
2018-10-02T09:20:26.950Z,1023.84
2018-10-02T09:21:27.322Z,1023.84
2018-10-02T09:22:27.637Z,1023.81
2018-10-02T09:23:27.091Z,1023.78
2018-10-02T09:24:27.339Z,1023.73
2018-10-02T09:25:26.935Z,1023.8
2018-10-02T09:26:27.188Z,1023.79
2018-10-02T09:27:27.234Z,1023.78
2018-10-02T09:28:27.477Z,1023.85
2018-10-02T09:29:27.530Z,1023.88
2018-10-02T09:30:27.953Z,1023.89
2018-10-02T09:31:27.221Z,1023.92
2018-10-02T09:32:27.133Z,1023.95
2018-10-02T09:33:27.497Z,1023.96
2018-10-02T09:34:27.252Z,1023.98
2018-10-02T09:35:27.450Z,1023.94
2018-10-02T09:36:27.758Z,1023.97
2018-10-02T09:37:27.615Z,1023.95
2018-10-02T09:38:27.207Z,1023.92
2018-10-02T09:39:27.560Z,1023.91
2018-10-02T09:40:27.590Z,1023.88
2018-10-02T09:41:27.429Z,1023.79
2018-10-02T09:42:27.075Z,1023.78
2018-10-02T09:43:27.376Z,1023.81
2018-10-02T09:44:27.092Z,1023.82
2018-10-02T09:45:27.305Z,1023.82
2018-10-02T09:46:27.101Z,1023.85
2018-10-02T09:47:27.079Z,1023.77
2018-10-02T09:48:27.864Z,1023.79
2018-10-02T09:49:26.929Z,1023.82
2018-10-02T09:50:27.278Z,1023.77
2018-10-02T09:51:27.201Z,1023.81
2018-10-02T09:52:27.103Z,1023.78
2018-10-02T09:53:27.122Z,1023.73
2018-10-02T09:54:27.238Z,1023.77
2018-10-02T09:55:27.354Z,1023.8
2018-10-02T09:56:27.606Z,1023.79
2018-10-02T09:57:27.023Z,1023.88
2018-10-02T09:58:27.283Z,1023.84
2018-10-02T09:59:27.126Z,1023.85
2018-10-02T10:00:27.288Z,1023.88
2018-10-02T10:01:27.067Z,1023.88
2018-10-02T10:02:27.131Z,1023.88
2018-10-02T10:03:27.129Z,1023.91
2018-10-02T10:04:27.446Z,1023.88
2018-10-02T10:05:27.146Z,1023.87
2018-10-02T10:06:27.044Z,1023.83
2018-10-02T10:07:27.022Z,1023.83
2018-10-02T10:08:26.902Z,1023.76
2018-10-02T10:09:27.058Z,1023.74
2018-10-02T10:10:27.453Z,1023.67
2018-10-02T10:11:26.947Z,1023.61
2018-10-02T10:12:26.964Z,1023.67
2018-10-02T10:13:26.924Z,1023.61
2018-10-02T10:14:27.066Z,1023.61
2018-10-02T10:15:27.586Z,1023.65
2018-10-02T10:16:27.337Z,1023.63
2018-10-02T10:17:27.634Z,1023.54
2018-10-02T10:18:27.055Z,1023.59
2018-10-02T10:19:27.445Z,1023.63
2018-10-02T10:20:27.334Z,1023.63
2018-10-02T10:21:27.242Z,1023.56
2018-10-02T10:22:27.218Z,1023.56
2018-10-02T10:23:27.315Z,1023.58
2018-10-02T10:24:27.145Z,1023.61
2018-10-02T10:25:27.491Z,1023.59
2018-10-02T10:26:27.299Z,1023.62
2018-10-02T10:27:27.222Z,1023.59
2018-10-02T10:28:27.397Z,1023.65
2018-10-02T10:29:27.125Z,1023.63
2018-10-02T10:30:26.964Z,1023.66
2018-10-02T10:31:27.383Z,1023.68
2018-10-02T10:32:27.200Z,1023.71
2018-10-02T10:33:27.316Z,1023.7
2018-10-02T10:34:27.439Z,1023.66
2018-10-02T10:35:27.108Z,1023.67
2018-10-02T10:36:27.007Z,1023.68
2018-10-02T10:37:27.158Z,1023.72
2018-10-02T10:38:26.909Z,1023.67
2018-10-02T10:39:27.375Z,1023.71
2018-10-02T10:40:27.068Z,1023.76
2018-10-02T10:41:27.125Z,1023.68
2018-10-02T10:42:27.382Z,1023.64
2018-10-02T10:43:27.097Z,1023.6
2018-10-02T10:44:27.521Z,1023.62
2018-10-02T10:45:27.103Z,1023.65
2018-10-02T10:46:27.270Z,1023.65
2018-10-02T10:47:27.255Z,1023.66
2018-10-02T10:48:27.269Z,1023.65
2018-10-02T10:49:27.104Z,1023.69
2018-10-02T10:50:26.872Z,1023.62
2018-10-02T10:51:27.158Z,1023.66
2018-10-02T10:52:27.244Z,1023.69
2018-10-02T10:53:27.452Z,1023.63
2018-10-02T10:54:27.255Z,1023.6
2018-10-02T10:55:27.578Z,1023.67
2018-10-02T10:56:27.413Z,1023.65
2018-10-02T10:57:27.169Z,1023.62
2018-10-02T10:58:27.302Z,1023.61
2018-10-02T10:59:27.078Z,1023.61
2018-10-02T11:00:27.343Z,1023.52
2018-10-02T11:01:27.228Z,1023.52
2018-10-02T11:02:27.286Z,1023.47
2018-10-02T11:03:27.126Z,1023.47
2018-10-02T11:04:27.226Z,1023.48
2018-10-02T11:05:27.112Z,1023.38
2018-10-02T11:06:27.037Z,1023.33
2018-10-02T11:07:27.139Z,1023.28
2018-10-02T11:08:27.363Z,1023.27
2018-10-02T11:09:27.568Z,1023.28
2018-10-02T11:10:27.297Z,1023.24
2018-10-02T11:11:27.118Z,1023.32
2018-10-02T11:12:27.488Z,1023.35
2018-10-02T11:13:27.130Z,1023.3
2018-10-02T11:14:26.911Z,1023.31
2018-10-02T11:15:27.206Z,1023.31
2018-10-02T11:16:27.100Z,1023.31
2018-10-02T11:17:27.242Z,1023.33
2018-10-02T11:18:27.321Z,1023.33
2018-10-02T11:19:27.440Z,1023.31
2018-10-02T11:20:27.154Z,1023.5
2018-10-02T11:21:27.037Z,1023.47
2018-10-02T11:22:27.033Z,1023.4
2018-10-02T11:23:26.984Z,1023.37
2018-10-02T11:24:27.106Z,1023.41
2018-10-02T11:25:27.522Z,1023.32
2018-10-02T11:26:27.115Z,1023.34
2018-10-02T11:27:27.023Z,1023.31
2018-10-02T11:28:26.939Z,1023.32
2018-10-02T11:29:27.259Z,1023.32
2018-10-02T11:30:26.986Z,1023.28
2018-10-02T11:31:27.328Z,1023.31
2018-10-02T11:32:26.981Z,1023.32
2018-10-02T11:33:27.024Z,1023.27
2018-10-02T11:34:27.330Z,1023.33
2018-10-02T11:35:27.395Z,1023.4
2018-10-02T11:36:27.077Z,1023.33
2018-10-02T11:37:27.169Z,1023.37
2018-10-02T11:38:27.026Z,1023.35
2018-10-02T11:39:27.019Z,1023.3
2018-10-02T11:40:27.005Z,1023.31
2018-10-02T11:41:27.135Z,1023.32
2018-10-02T11:42:27.066Z,1023.35
2018-10-02T11:43:27.107Z,1023.31
2018-10-02T11:44:28.273Z,1023.34
2018-10-02T11:45:26.855Z,1023.39
2018-10-02T11:46:26.992Z,1023.32
2018-10-02T11:47:27.098Z,1023.35
2018-10-02T11:48:27.091Z,1023.33
2018-10-02T11:49:27.464Z,1023.38
2018-10-02T11:50:26.990Z,1023.34
2018-10-02T11:51:27.136Z,1023.38
2018-10-02T11:52:27.107Z,1023.41
2018-10-02T11:53:26.982Z,1023.34
2018-10-02T11:54:27.167Z,1023.36
2018-10-02T11:55:27.656Z,1023.38
2018-10-02T11:56:27.151Z,1023.35
2018-10-02T11:57:27.245Z,1023.39
2018-10-02T11:58:27.043Z,1023.39
2018-10-02T11:59:26.928Z,1023.37
2018-10-02T12:00:27.444Z,1023.34
2018-10-02T12:01:27.931Z,1023.31
2018-10-02T12:02:27.233Z,1023.29
2018-10-02T12:03:27.754Z,1023.28
2018-10-02T12:04:27.386Z,1023.26
2018-10-02T12:05:27.141Z,1023.27
2018-10-02T12:06:27.061Z,1023.27
2018-10-02T12:07:27.367Z,1023.29
2018-10-02T12:08:27.054Z,1023.29